Time;durP1;ratioP1;P1;durP2;ratioP2;P2;SDS_P1;SDS_P2;PMS_P1;PMS_P2;Temp;Humidity;BMP_temperature;BMP_pressure;BME280_temperature;BME280_humidity;BME280_pressure;Samples;Min_cycle;Max_cycle;Signal;HPM_P1;HPM_P2
2022/05/13 00:02:08;;;;;;;;;;;15.50;97.80;;;;;;2721110;39;20481;31
2022/05/13 00:04:48;;;;;;;;;;;15.50;97.70;;;;;;2622886;46;20572;31
2022/05/13 00:07:22;;;;;;;;;;;15.50;98.00;;;;;;2622590;46;19935;31
2022/05/13 00:10:05;;;;;;;;;;;15.40;97.90;;;;;;2603752;54;19935;31
2022/05/13 00:12:40;;;;;;;;;;;15.40;97.70;;;;;;2622122;46;20788;31
2022/05/13 00:15:16;;;;;;;;;;;15.40;97.70;;;;;;2702316;39;21226;31
2022/05/13 00:17:50;;;;;;;;;;;15.40;97.60;;;;;;2603739;54;20790;31
2022/05/13 00:20:28;;;;;;;;;;;15.30;98.40;;;;;;2603732;54;20830;31
2022/05/13 00:23:03;;;;;;;;;;;15.20;98.30;;;;;;2622458;46;19935;31
2022/05/13 00:25:38;;;;;;;;;;;15.20;98.10;;;;;;2721043;39;20384;31
2022/05/13 00:28:14;;;;;;;;;;;15.20;98.10;;;;;;2604083;54;20568;31
2022/05/13 00:30:51;;;;;;;;;;;15.10;97.80;;;;;;2603659;54;19957;31
2022/05/13 00:33:26;;;;;;;;;;;15.10;98.10;;;;;;2622181;46;19935;31
2022/05/13 00:36:04;;;;;;;;;;;15.00;98.40;;;;;;2621954;46;19993;31
2022/05/13 00:38:41;;;;;;;;;;;15.00;98.20;;;;;;2604013;54;20786;31
2022/05/13 00:41:16;;;;;;;;;;;15.00;98.10;;;;;;2721193;39;20390;31
2022/05/13 00:43:52;;;;;;;;;;;14.90;98.10;;;;;;2622287;46;19942;31
2022/05/13 00:46:30;;;;;;;;;;;14.90;98.40;;;;;;2622468;46;20072;31
2022/05/13 00:49:05;;;;;;;;;;;14.80;98.90;;;;;;2603603;54;19935;31
2022/05/13 00:51:42;;;;;;;;;;;14.80;99.10;;;;;;2622310;46;19935;31
2022/05/13 00:54:17;;;;;;;;;;;14.70;99.60;;;;;;2622467;46;19962;31
2022/05/13 00:56:53;;;;;;;;;;;14.60;99.80;;;;;;2604041;54;20552;31
2022/05/13 00:59:31;;;;;;;;;;;14.60;99.90;;;;;;2603905;54;19965;31
2022/05/13 01:02:13;;;;;;;;;;;14.60;99.90;;;;;;2603691;54;19953;31
2022/05/13 01:04:48;;;;;;;;;;;14.50;99.90;;;;;;2603865;54;19977;31
2022/05/13 01:07:27;;;;;;;;;;;14.50;99.90;;;;;;2603657;54;21423;31
2022/05/13 01:10:02;;;;;;;;;;;14.50;99.90;;;;;;2603605;54;20663;31
2022/05/13 01:12:38;;;;;;;;;;;14.40;99.90;;;;;;2603968;54;19947;31
2022/05/13 01:15:15;;;;;;;;;;;14.40;99.90;;;;;;2603956;54;19997;31
2022/05/13 01:20:51;;;;;;;;;;;14.30;99.90;;;;;;2622347;46;19941;31
2022/05/13 01:23:32;;;;;;;;;;;14.30;99.90;;;;;;2603124;54;20028;31
2022/05/13 01:26:08;;;;;;;;;;;14.30;99.90;;;;;;2603143;54;19941;31
2022/05/13 01:28:44;;;;;;;;;;;14.30;99.90;;;;;;2603464;54;20014;31
2022/05/13 01:31:24;;;;;;;;;;;14.30;99.90;;;;;;2602985;54;19942;31
2022/05/13 01:34:00;;;;;;;;;;;14.20;99.90;;;;;;2712081;39;21210;31
2022/05/13 01:36:34;;;;;;;;;;;14.30;99.90;;;;;;2602952;54;19949;31
2022/05/13 01:39:18;;;;;;;;;;;14.20;99.90;;;;;;2602891;54;19965;31
2022/05/13 01:41:50;;;;;;;;;;;14.10;99.90;;;;;;2702481;39;20919;31
2022/05/13 01:44:27;;;;;;;;;;;14.10;99.90;;;;;;2603402;54;19941;31
2022/05/13 01:47:02;;;;;;;;;;;14.10;99.90;;;;;;2622084;46;19950;31
2022/05/13 01:49:41;;;;;;;;;;;14.10;99.90;;;;;;2603453;54;20461;31
2022/05/13 01:52:16;;;;;;;;;;;14.00;99.90;;;;;;2603587;54;20021;31
2022/05/13 01:54:56;;;;;;;;;;;14.00;99.90;;;;;;2603634;54;19934;31
2022/05/13 01:57:33;;;;;;;;;;;14.00;99.90;;;;;;2602890;54;20714;31
2022/05/13 02:00:12;;;;;;;;;;;14.00;99.90;;;;;;2701402;39;21465;31
2022/05/13 02:05:36;;;;;;;;;;;13.90;99.90;;;;;;2621949;46;20794;31
2022/05/13 02:08:15;;;;;;;;;;;13.80;99.90;;;;;;2720829;39;21007;31
2022/05/13 02:10:56;;;;;;;;;;;13.80;99.90;;;;;;2621782;46;19941;31
2022/05/13 02:13:34;;;;;;;;;;;13.80;99.90;;;;;;2603632;54;19942;31
2022/05/13 02:16:08;;;;;;;;;;;13.70;99.90;;;;;;2622303;47;20470;31
2022/05/13 02:18:43;;;;;;;;;;;13.70;99.90;;;;;;2603625;54;19935;31
2022/05/13 02:21:18;;;;;;;;;;;13.60;99.90;;;;;;2622096;47;19935;31
2022/05/13 02:23:53;;;;;;;;;;;13.50;99.90;;;;;;2603660;54;19961;31
2022/05/13 02:26:31;;;;;;;;;;;13.50;99.90;;;;;;2603666;54;19939;31
2022/05/13 02:29:06;;;;;;;;;;;13.50;99.90;;;;;;2621941;47;20733;31
2022/05/13 02:31:40;;;;;;;;;;;13.40;99.90;;;;;;2621584;47;20819;31
2022/05/13 02:34:15;;;;;;;;;;;13.30;99.90;;;;;;2702151;39;20378;31
2022/05/13 02:36:52;;;;;;;;;;;13.20;99.90;;;;;;2621630;47;19947;31
2022/05/13 02:39:27;;;;;;;;;;;13.20;99.90;;;;;;2603334;54;19947;31
2022/05/13 02:42:05;;;;;;;;;;;13.20;99.90;;;;;;2622149;47;19935;31
2022/05/13 02:44:40;;;;;;;;;;;13.20;99.90;;;;;;2602798;54;19943;31
2022/05/13 02:47:15;;;;;;;;;;;13.20;99.90;;;;;;2603329;54;19989;31
2022/05/13 02:50:17;;;;;;;;;;;13.20;99.90;;;;;;2603526;54;19934;31
2022/05/13 02:52:51;;;;;;;;;;;13.10;99.90;;;;;;2720512;39;20425;31
2022/05/13 02:55:25;;;;;;;;;;;13.10;99.90;;;;;;2603090;54;21442;31
2022/05/13 02:58:02;;;;;;;;;;;13.10;99.90;;;;;;2603483;54;20787;31
2022/05/13 03:00:40;;;;;;;;;;;13.10;99.90;;;;;;2604219;54;20833;31
2022/05/13 03:03:14;;;;;;;;;;;13.10;99.90;;;;;;2604109;54;20763;31
2022/05/13 03:05:51;;;;;;;;;;;13.00;99.90;;;;;;2604159;54;19941;31
2022/05/13 03:08:25;;;;;;;;;;;13.00;99.90;;;;;;2721549;39;20366;31
2022/05/13 03:11:00;;;;;;;;;;;13.00;99.90;;;;;;2622712;46;19941;31
2022/05/13 03:13:38;;;;;;;;;;;13.00;99.90;;;;;;2623100;46;20798;31
2022/05/13 03:16:15;;;;;;;;;;;13.00;99.90;;;;;;2604163;54;20764;31
2022/05/13 03:18:49;;;;;;;;;;;12.90;99.90;;;;;;2622249;46;20050;31
2022/05/13 03:21:26;;;;;;;;;;;12.90;99.90;;;;;;2604094;54;19989;31
2022/05/13 03:24:03;;;;;;;;;;;13.00;99.90;;;;;;2622778;46;20770;31
2022/05/13 03:26:38;;;;;;;;;;;12.90;99.90;;;;;;2622877;46;19986;31
2022/05/13 03:29:16;;;;;;;;;;;12.90;99.90;;;;;;2603924;54;20754;31
2022/05/13 03:31:50;;;;;;;;;;;12.90;99.90;;;;;;2604128;54;20707;31
2022/05/13 03:34:26;;;;;;;;;;;12.90;99.90;;;;;;2603959;54;19935;31
2022/05/13 03:37:01;;;;;;;;;;;12.90;99.90;;;;;;2622542;46;19935;31
2022/05/13 03:39:35;;;;;;;;;;;12.90;99.90;;;;;;2622649;46;20751;31
2022/05/13 03:42:11;;;;;;;;;;;12.80;99.90;;;;;;2603346;54;20069;31
2022/05/13 03:44:51;;;;;;;;;;;12.80;99.90;;;;;;2604121;54;19993;31
2022/05/13 03:47:26;;;;;;;;;;;12.80;99.90;;;;;;2603952;54;19935;31
2022/05/13 03:50:02;;;;;;;;;;;12.90;99.90;;;;;;2602942;54;20675;31
2022/05/13 03:52:37;;;;;;;;;;;12.90;99.90;;;;;;2604116;54;19935;31
2022/05/13 03:55:12;;;;;;;;;;;13.00;99.90;;;;;;2603826;54;19935;31
2022/05/13 03:57:47;;;;;;;;;;;13.10;99.90;;;;;;2604223;54;19989;31
2022/05/13 04:00:26;;;;;;;;;;;13.20;99.90;;;;;;2603742;54;19934;31
2022/05/13 04:03:01;;;;;;;;;;;13.30;99.90;;;;;;2603986;54;19942;31
2022/05/13 04:11:08;;;;;;;;;;;13.50;99.90;;;;;;2621881;46;21324;31
2022/05/13 04:16:36;;;;;;;;;;;13.60;99.90;;;;;;2622214;46;20743;31
2022/05/13 04:19:12;;;;;;;;;;;13.60;99.90;;;;;;2603832;54;19947;31
2022/05/13 04:21:47;;;;;;;;;;;13.80;99.90;;;;;;2603270;54;19935;31
2022/05/13 04:24:22;;;;;;;;;;;13.80;99.90;;;;;;2603951;54;20010;31
2022/05/13 04:26:57;;;;;;;;;;;13.90;99.90;;;;;;2604099;54;19985;31
2022/05/13 04:29:33;;;;;;;;;;;14.00;99.90;;;;;;2604105;54;19985;31
2022/05/13 04:32:09;;;;;;;;;;;14.00;99.90;;;;;;2603173;54;19935;31
2022/05/13 04:34:52;;;;;;;;;;;14.10;99.90;;;;;;2603491;54;19942;31
2022/05/13 04:37:29;;;;;;;;;;;14.10;99.90;;;;;;2603888;54;19941;31
2022/05/13 04:40:02;;;;;;;;;;;14.20;99.90;;;;;;2702656;39;20927;31
2022/05/13 04:48:25;;;;;;;;;;;14.50;99.90;;;;;;2702308;39;21341;31
2022/05/13 04:51:02;;;;;;;;;;;14.60;99.90;;;;;;2603101;54;19946;31
2022/05/13 04:53:41;;;;;;;;;;;14.70;99.90;;;;;;2621628;46;20701;31
2022/05/13 04:56:15;;;;;;;;;;;14.80;99.90;;;;;;2603319;54;19934;31
2022/05/13 04:58:50;;;;;;;;;;;14.90;99.90;;;;;;2622585;46;19942;31
2022/05/13 05:01:24;;;;;;;;;;;15.00;99.90;;;;;;2622307;46;20730;31
2022/05/13 05:03:59;;;;;;;;;;;15.10;99.90;;;;;;2622349;46;19989;31
2022/05/13 05:06:34;;;;;;;;;;;15.40;99.90;;;;;;2603909;54;20784;31
2022/05/13 05:09:12;;;;;;;;;;;15.50;99.90;;;;;;2602995;54;20822;31
2022/05/13 05:11:46;;;;;;;;;;;15.70;99.90;;;;;;2622247;46;19941;31
2022/05/13 05:14:24;;;;;;;;;;;15.80;99.90;;;;;;2603688;54;20508;31
2022/05/13 05:17:00;;;;;;;;;;;15.90;99.90;;;;;;2603767;54;19946;31
2022/05/13 05:19:34;;;;;;;;;;;16.10;99.90;;;;;;2603615;54;19934;31
2022/05/13 05:22:08;;;;;;;;;;;16.20;99.90;;;;;;2720789;39;21040;31
2022/05/13 05:24:45;;;;;;;;;;;16.40;99.90;;;;;;2603937;54;20025;31
2022/05/13 05:27:23;;;;;;;;;;;16.80;99.90;;;;;;2720621;39;20395;31
2022/05/13 05:30:00;;;;;;;;;;;17.10;99.90;;;;;;2702476;39;21037;31
2022/05/13 05:32:35;;;;;;;;;;;17.50;99.90;;;;;;2622163;46;20010;31
2022/05/13 05:35:09;;;;;;;;;;;17.80;99.90;;;;;;2604027;54;19935;31
2022/05/13 05:37:44;;;;;;;;;;;18.10;99.90;;;;;;2622250;46;19938;31
2022/05/13 05:40:20;;;;;;;;;;;18.40;99.90;;;;;;2701405;39;20417;31
2022/05/13 05:42:57;;;;;;;;;;;18.50;99.90;;;;;;2603551;54;19958;31
2022/05/13 05:45:34;;;;;;;;;;;18.80;99.90;;;;;;2603558;54;19935;31
2022/05/13 05:48:10;;;;;;;;;;;19.00;99.90;;;;;;2603680;54;19961;31
2022/05/13 05:50:46;;;;;;;;;;;19.00;99.90;;;;;;2603609;54;19930;31
2022/05/13 05:59:01;;;;;;;;;;;19.20;99.90;;;;;;2622061;46;19935;31
2022/05/13 06:01:36;;;;;;;;;;;19.30;99.90;;;;;;2603916;54;19935;31
2022/05/13 06:04:12;;;;;;;;;;;19.30;99.90;;;;;;2603308;54;19994;31
2022/05/13 06:06:47;;;;;;;;;;;19.30;99.90;;;;;;2603523;54;19942;31
2022/05/13 06:09:23;;;;;;;;;;;19.60;99.90;;;;;;2603362;54;19946;31
2022/05/13 06:11:59;;;;;;;;;;;19.90;99.90;;;;;;2603008;54;19939;31
2022/05/13 06:14:36;;;;;;;;;;;20.10;99.90;;;;;;2773369;31;21257;31
2022/05/13 06:17:15;;;;;;;;;;;20.40;99.90;;;;;;2602656;54;20481;31
2022/05/13 06:19:50;;;;;;;;;;;20.60;99.90;;;;;;2603497;54;20017;31
2022/05/13 06:22:25;;;;;;;;;;;20.90;99.90;;;;;;2603353;54;19935;31
2022/05/13 06:25:02;;;;;;;;;;;21.20;98.90;;;;;;2622187;47;20802;31
2022/05/13 06:27:38;;;;;;;;;;;21.10;98.80;;;;;;2603561;54;19946;31
2022/05/13 06:30:17;;;;;;;;;;;21.00;98.80;;;;;;2603385;54;20629;31
2022/05/13 06:32:52;;;;;;;;;;;20.90;98.70;;;;;;2622626;47;19957;31
2022/05/13 06:35:30;;;;;;;;;;;20.70;98.70;;;;;;2703075;39;20899;31
2022/05/13 06:38:04;;;;;;;;;;;20.70;98.10;;;;;;2604097;54;20856;31
2022/05/13 06:40:40;;;;;;;;;;;20.70;98.70;;;;;;2604268;54;20029;31
2022/05/13 06:43:16;;;;;;;;;;;20.90;98.50;;;;;;2622403;46;20736;31
2022/05/13 06:45:55;;;;;;;;;;;21.00;98.50;;;;;;2603550;54;20883;31
2022/05/13 06:48:31;;;;;;;;;;;21.10;98.80;;;;;;2604397;54;20745;31
2022/05/13 06:51:06;;;;;;;;;;;21.10;97.50;;;;;;2604084;54;20019;31
2022/05/13 06:53:42;;;;;;;;;;;21.10;97.10;;;;;;2604140;54;19935;31
2022/05/13 06:56:18;;;;;;;;;;;21.40;97.50;;;;;;2604161;54;20469;31
2022/05/13 06:58:54;;;;;;;;;;;21.70;96.60;;;;;;2604273;54;20369;31
2022/05/13 07:01:34;;;;;;;;;;;22.20;97.00;;;;;;2604333;54;19935;31
2022/05/13 07:04:09;;;;;;;;;;;22.70;95.60;;;;;;2607946;46;20718;31
2022/05/13 07:06:45;;;;;;;;;;;23.20;95.30;;;;;;2620002;46;19943;31
2022/05/13 07:09:22;;;;;;;;;;;23.20;94.20;;;;;;2622583;46;19935;31
2022/05/13 07:11:57;;;;;;;;;;;23.40;94.30;;;;;;2604140;54;20088;31
2022/05/13 07:14:34;;;;;;;;;;;23.40;93.70;;;;;;2622845;46;19935;31
2022/05/13 07:17:12;;;;;;;;;;;23.30;93.90;;;;;;2603362;54;20675;31
2022/05/13 07:19:50;;;;;;;;;;;23.40;93.60;;;;;;2604310;54;19941;31
2022/05/13 07:22:26;;;;;;;;;;;23.80;94.30;;;;;;2622397;46;19942;31
2022/05/13 07:25:00;;;;;;;;;;;24.00;91.60;;;;;;2603445;54;19949;31
2022/05/13 07:27:36;;;;;;;;;;;24.20;91.60;;;;;;2603856;54;19930;31
2022/05/13 07:30:13;;;;;;;;;;;24.60;90.80;;;;;;2603939;54;19946;31
2022/05/13 07:32:55;;;;;;;;;;;24.90;90.20;;;;;;2622555;46;19943;31
2022/05/13 07:35:32;;;;;;;;;;;25.20;89.70;;;;;;2702993;39;20931;31
2022/05/13 07:38:11;;;;;;;;;;;25.50;86.40;;;;;;2622549;46;19989;31
2022/05/13 07:43:36;;;;;;;;;;;26.20;87.30;;;;;;2603942;54;19934;31
2022/05/13 07:46:13;;;;;;;;;;;26.50;85.60;;;;;;2622348;46;19942;31
2022/05/13 07:48:52;;;;;;;;;;;26.70;81.90;;;;;;2603895;54;20017;31
2022/05/13 07:51:30;;;;;;;;;;;26.90;81.60;;;;;;2604339;54;20020;31
2022/05/13 07:54:07;;;;;;;;;;;27.00;80.30;;;;;;2702185;39;21259;31
2022/05/13 07:56:42;;;;;;;;;;;27.20;78.50;;;;;;2604011;54;19946;31
2022/05/13 07:59:17;;;;;;;;;;;27.40;77.40;;;;;;2604166;54;19934;31
2022/05/13 08:01:55;;;;;;;;;;;27.60;77.40;;;;;;2701728;39;21166;31
2022/05/13 08:04:30;;;;;;;;;;;27.70;73.90;;;;;;2622261;46;19935;31
2022/05/13 08:07:14;;;;;;;;;;;27.60;72.90;;;;;;2604038;54;20474;31
2022/05/13 08:09:51;;;;;;;;;;;27.40;73.20;;;;;;2701558;39;20498;31
2022/05/13 08:12:25;;;;;;;;;;;27.50;73.90;;;;;;2621799;46;20017;31
2022/05/13 08:15:00;;;;;;;;;;;27.60;72.70;;;;;;2603795;54;19985;31
2022/05/13 08:17:37;;;;;;;;;;;27.70;73.00;;;;;;2604121;54;19934;31
2022/05/13 08:20:13;;;;;;;;;;;27.80;74.30;;;;;;2603250;54;19954;31
2022/05/13 08:22:51;;;;;;;;;;;27.80;72.10;;;;;;2604155;54;20315;31
2022/05/13 08:25:27;;;;;;;;;;;27.80;72.10;;;;;;2603093;54;20017;31
2022/05/13 08:28:04;;;;;;;;;;;27.80;72.30;;;;;;2622001;46;19946;31
2022/05/13 08:30:39;;;;;;;;;;;27.90;72.30;;;;;;2622648;46;20025;31
2022/05/13 08:33:13;;;;;;;;;;;28.10;72.30;;;;;;2622278;46;20740;31
2022/05/13 08:35:47;;;;;;;;;;;28.30;72.10;;;;;;2603759;54;20564;31
2022/05/13 08:38:25;;;;;;;;;;;28.50;71.50;;;;;;2621010;46;19941;31
2022/05/13 08:41:06;;;;;;;;;;;28.50;69.60;;;;;;2604068;54;20540;31
2022/05/13 08:43:43;;;;;;;;;;;28.50;69.80;;;;;;2622050;46;19941;31
2022/05/13 08:46:24;;;;;;;;;;;28.70;71.90;;;;;;2603885;54;19943;31
2022/05/13 08:49:05;;;;;;;;;;;28.90;70.60;;;;;;2603232;54;19943;31
2022/05/13 08:51:40;;;;;;;;;;;29.00;70.90;;;;;;2603751;54;19935;31
2022/05/13 08:54:17;;;;;;;;;;;29.10;69.50;;;;;;2604051;54;19935;31
2022/05/13 08:56:56;;;;;;;;;;;29.20;71.50;;;;;;2622569;46;19935;31
2022/05/13 08:59:34;;;;;;;;;;;29.30;69.70;;;;;;2622327;46;19950;31
2022/05/13 09:02:12;;;;;;;;;;;29.40;69.40;;;;;;2611482;46;19942;31
2022/05/13 09:04:49;;;;;;;;;;;29.40;68.90;;;;;;2603935;54;19934;31
2022/05/13 09:07:25;;;;;;;;;;;29.20;70.00;;;;;;2610703;46;20741;31
2022/05/13 09:10:01;;;;;;;;;;;29.00;71.10;;;;;;2603392;54;19949;31
2022/05/13 09:12:41;;;;;;;;;;;28.80;69.50;;;;;;2603676;54;19961;31
2022/05/13 09:15:17;;;;;;;;;;;28.60;70.00;;;;;;2603997;54;20450;31
2022/05/13 09:17:55;;;;;;;;;;;28.30;68.30;;;;;;2603792;54;19935;31
2022/05/13 09:20:32;;;;;;;;;;;28.10;70.40;;;;;;2622489;46;20758;31
2022/05/13 09:23:07;;;;;;;;;;;28.00;71.80;;;;;;2602962;54;20493;31
2022/05/13 09:25:49;;;;;;;;;;;27.90;71.00;;;;;;2622399;46;19943;31
2022/05/13 09:28:27;;;;;;;;;;;27.80;70.70;;;;;;2622114;46;19935;31
2022/05/13 09:31:09;;;;;;;;;;;27.60;70.00;;;;;;2603786;54;20775;31
2022/05/13 09:33:47;;;;;;;;;;;27.70;70.40;;;;;;2603825;54;19934;31
2022/05/13 09:36:34;;;;;;;;;;;27.90;70.60;;;;;;2603875;54;19935;31
2022/05/13 09:39:22;;;;;;;;;;;28.10;71.00;;;;;;2622636;46;19957;31
2022/05/13 09:41:57;;;;;;;;;;;28.30;69.70;;;;;;2622184;46;19942;31
2022/05/13 09:44:33;;;;;;;;;;;28.30;71.00;;;;;;2603959;54;19934;31
2022/05/13 09:47:13;;;;;;;;;;;28.20;71.10;;;;;;2603789;54;19943;31
2022/05/13 09:50:16;;;;;;;;;;;28.00;69.40;;;;;;2622282;46;20726;31
2022/05/13 09:52:52;;;;;;;;;;;28.20;70.10;;;;;;2622172;46;20331;31
2022/05/13 09:55:29;;;;;;;;;;;28.10;70.90;;;;;;2603868;54;20702;31
2022/05/13 09:58:09;;;;;;;;;;;27.90;70.40;;;;;;2701480;39;20289;31
2022/05/13 10:00:45;;;;;;;;;;;27.80;69.90;;;;;;2602967;54;20013;31
2022/05/13 10:03:23;;;;;;;;;;;27.60;69.50;;;;;;2622160;46;19935;31
2022/05/13 10:06:05;;;;;;;;;;;27.40;70.60;;;;;;2602757;54;19943;31
2022/05/13 10:08:46;;;;;;;;;;;27.20;71.90;;;;;;2603619;54;19934;31
2022/05/13 10:14:12;;;;;;;;;;;27.30;70.60;;;;;;2603707;54;19942;31
2022/05/13 10:16:47;;;;;;;;;;;27.30;71.70;;;;;;2602579;54;19942;31
2022/05/13 10:19:26;;;;;;;;;;;27.20;73.30;;;;;;2602907;54;20703;31
2022/05/13 10:22:04;;;;;;;;;;;27.20;72.70;;;;;;2616775;47;21138;31
2022/05/13 10:24:40;;;;;;;;;;;27.30;72.90;;;;;;2602810;54;19942;31
2022/05/13 10:27:15;;;;;;;;;;;27.50;71.60;;;;;;2603487;54;20761;31
2022/05/13 10:29:50;;;;;;;;;;;27.50;73.10;;;;;;2603527;54;19989;31
2022/05/13 10:32:30;;;;;;;;;;;27.50;72.50;;;;;;2622341;47;19941;31
2022/05/13 10:35:10;;;;;;;;;;;27.20;72.20;;;;;;2713351;39;21172;31
2022/05/13 10:37:52;;;;;;;;;;;27.30;73.90;;;;;;2603481;54;19942;31
2022/05/13 10:40:26;;;;;;;;;;;27.50;74.30;;;;;;2603472;54;20764;31
2022/05/13 10:43:04;;;;;;;;;;;27.70;73.50;;;;;;2702019;39;20927;31
2022/05/13 10:45:41;;;;;;;;;;;27.90;72.90;;;;;;2621901;47;20858;31
2022/05/13 10:48:18;;;;;;;;;;;28.10;74.60;;;;;;2701985;39;20246;31
2022/05/13 10:50:59;;;;;;;;;;;28.20;71.10;;;;;;2603619;54;19942;31
2022/05/13 10:53:36;;;;;;;;;;;28.30;72.10;;;;;;2607999;47;20785;31
2022/05/13 10:56:13;;;;;;;;;;;28.40;72.00;;;;;;2603500;54;19935;31
2022/05/13 10:58:49;;;;;;;;;;;28.40;71.90;;;;;;2701082;39;21263;31
2022/05/13 11:01:28;;;;;;;;;;;28.30;71.30;;;;;;2602861;54;20006;31
2022/05/13 11:04:03;;;;;;;;;;;28.20;73.30;;;;;;2622179;47;20482;31
2022/05/13 11:06:52;;;;;;;;;;;27.90;71.60;;;;;;2603095;54;19942;31
2022/05/13 11:09:31;;;;;;;;;;;27.80;72.10;;;;;;2603282;54;19945;31
2022/05/13 11:12:11;;;;;;;;;;;27.70;72.60;;;;;;2602676;54;19935;31
2022/05/13 11:14:48;;;;;;;;;;;27.50;73.90;;;;;;2603507;54;20765;31
2022/05/13 11:17:26;;;;;;;;;;;27.40;73.40;;;;;;2603046;54;19935;31
2022/05/13 11:20:06;;;;;;;;;;;27.20;74.20;;;;;;2603862;54;19935;31
2022/05/13 11:22:40;;;;;;;;;;;27.10;74.40;;;;;;2604248;54;19938;31
2022/05/13 11:28:12;;;;;;;;;;;26.70;75.90;;;;;;2622804;46;19947;31
2022/05/13 11:30:49;;;;;;;;;;;26.50;76.50;;;;;;2603940;54;20855;31
2022/05/13 11:33:26;;;;;;;;;;;26.50;77.40;;;;;;2622723;46;19942;31
2022/05/13 11:36:05;;;;;;;;;;;26.50;75.70;;;;;;2622731;46;20524;31
2022/05/13 11:38:44;;;;;;;;;;;26.50;76.70;;;;;;2604082;54;20726;31
2022/05/13 11:41:19;;;;;;;;;;;26.50;76.40;;;;;;2603910;54;19951;31
2022/05/13 11:44:18;;;;;;;;;;;26.50;77.00;;;;;;2702886;39;20776;31
2022/05/13 11:46:55;;;;;;;;;;;26.60;77.80;;;;;;2603969;54;19942;31
2022/05/13 11:49:31;;;;;;;;;;;26.60;78.40;;;;;;2622650;46;20812;31
2022/05/13 11:52:27;;;;;;;;;;;26.80;77.60;;;;;;2604070;54;20446;31
2022/05/13 11:55:17;;;;;;;;;;;27.00;77.20;;;;;;2702548;39;20239;31
2022/05/13 11:57:51;;;;;;;;;;;27.20;77.60;;;;;;2774272;31;20447;31
2022/05/13 12:00:36;;;;;;;;;;;27.40;76.20;;;;;;2622774;46;20465;31
2022/05/13 12:03:19;;;;;;;;;;;27.40;77.60;;;;;;2604246;54;19934;31
2022/05/13 12:06:01;;;;;;;;;;;27.20;75.90;;;;;;2622854;46;20750;31
2022/05/13 12:08:41;;;;;;;;;;;26.90;75.60;;;;;;2603941;54;20834;31
2022/05/13 12:11:30;;;;;;;;;;;26.90;78.10;;;;;;2604042;54;19994;31
2022/05/13 12:14:11;;;;;;;;;;;27.00;77.70;;;;;;2603983;54;19985;31
2022/05/13 12:16:50;;;;;;;;;;;27.10;78.30;;;;;;2607102;46;19942;31
2022/05/13 12:19:28;;;;;;;;;;;27.20;77.70;;;;;;2622481;46;20741;31
2022/05/13 12:22:08;;;;;;;;;;;27.30;78.30;;;;;;2622624;46;20017;31
2022/05/13 12:24:58;;;;;;;;;;;27.40;77.90;;;;;;2622428;46;19935;31
2022/05/13 12:27:34;;;;;;;;;;;27.40;77.20;;;;;;2604102;54;19938;31
2022/05/13 12:30:12;;;;;;;;;;;27.30;76.00;;;;;;2617740;46;20373;31
2022/05/13 12:32:51;;;;;;;;;;;27.20;76.40;;;;;;2610560;46;19943;31
2022/05/13 12:38:21;;;;;;;;;;;27.20;78.30;;;;;;2603872;54;19990;31
2022/05/13 12:41:09;;;;;;;;;;;27.20;75.60;;;;;;2622046;46;19950;31
2022/05/13 12:43:49;;;;;;;;;;;27.10;75.40;;;;;;2603577;54;20764;31
2022/05/13 12:46:25;;;;;;;;;;;26.90;75.50;;;;;;2603675;54;19942;31
2022/05/13 12:49:06;;;;;;;;;;;26.90;76.10;;;;;;2701640;39;21272;31
2022/05/13 12:51:44;;;;;;;;;;;27.00;75.70;;;;;;2603150;54;19935;31
2022/05/13 12:54:19;;;;;;;;;;;27.00;76.00;;;;;;2622092;46;20647;31
2022/05/13 12:56:54;;;;;;;;;;;27.00;76.10;;;;;;2603061;54;21400;31
2022/05/13 12:59:50;;;;;;;;;;;27.00;76.90;;;;;;2622090;46;19934;31
2022/05/13 13:02:27;;;;;;;;;;;26.90;76.60;;;;;;2702367;39;20367;31
2022/05/13 13:05:08;;;;;;;;;;;26.80;75.40;;;;;;2622174;46;20013;31
2022/05/13 13:07:43;;;;;;;;;;;26.80;75.70;;;;;;2603810;54;19934;31
2022/05/13 13:10:33;;;;;;;;;;;26.80;76.50;;;;;;2603714;54;19941;31
2022/05/13 13:13:10;;;;;;;;;;;26.60;75.70;;;;;;2603663;54;19935;31
2022/05/13 13:15:47;;;;;;;;;;;26.60;74.40;;;;;;2622513;46;19934;31
2022/05/13 13:18:33;;;;;;;;;;;26.70;74.70;;;;;;2603565;54;20065;31
2022/05/13 13:21:12;;;;;;;;;;;26.60;74.10;;;;;;2603853;54;19962;31
2022/05/13 13:23:49;;;;;;;;;;;26.50;74.50;;;;;;2603780;54;19942;31
2022/05/13 13:26:24;;;;;;;;;;;26.20;73.00;;;;;;2614049;46;20629;31
2022/05/13 13:29:00;;;;;;;;;;;26.10;74.20;;;;;;2603047;54;19974;31
2022/05/13 13:31:40;;;;;;;;;;;26.00;74.40;;;;;;2622080;46;19942;31
2022/05/13 13:34:25;;;;;;;;;;;25.90;74.00;;;;;;2605659;46;20010;31
2022/05/13 13:36:59;;;;;;;;;;;26.00;74.50;;;;;;2603654;54;20730;31
2022/05/13 13:40:12;;;;;;;;;;;26.00;75.20;;;;;;2603739;54;20788;31
2022/05/13 13:42:46;;;;;;;;;;;26.10;73.60;;;;;;2603485;54;19935;31
2022/05/13 13:45:26;;;;;;;;;;;26.20;74.50;;;;;;2622073;46;20005;31
2022/05/13 13:48:01;;;;;;;;;;;26.10;72.00;;;;;;2622252;46;19938;31
2022/05/13 13:50:41;;;;;;;;;;;26.00;72.90;;;;;;2602882;54;19935;31
2022/05/13 13:53:13;;;;;;;;;;;25.90;72.30;;;;;;2702385;39;20872;31
2022/05/13 13:55:51;;;;;;;;;;;25.80;72.50;;;;;;2603722;54;19941;31
2022/05/13 13:58:30;;;;;;;;;;;25.80;73.20;;;;;;2602865;54;19943;31
2022/05/13 14:01:10;;;;;;;;;;;25.80;72.50;;;;;;2603597;54;19934;31
2022/05/13 14:03:45;;;;;;;;;;;25.70;72.70;;;;;;2603372;54;20730;31
2022/05/13 14:06:23;;;;;;;;;;;25.70;74.00;;;;;;2720529;39;20374;31
2022/05/13 14:08:57;;;;;;;;;;;25.50;73.20;;;;;;2603481;54;20827;31
2022/05/13 14:11:41;;;;;;;;;;;25.50;73.90;;;;;;2622024;46;21237;31
2022/05/13 14:14:35;;;;;;;;;;;25.30;73.30;;;;;;2621637;47;19942;31
2022/05/13 14:17:10;;;;;;;;;;;25.20;74.20;;;;;;2602553;54;19946;31
2022/05/13 14:19:45;;;;;;;;;;;25.10;73.70;;;;;;2621897;47;19950;31
2022/05/13 14:22:22;;;;;;;;;;;24.90;74.60;;;;;;2622091;47;20013;31
2022/05/13 14:25:03;;;;;;;;;;;24.90;75.10;;;;;;2603425;54;19985;31
2022/05/13 14:27:42;;;;;;;;;;;24.80;75.20;;;;;;2603725;54;19934;31
2022/05/13 14:30:18;;;;;;;;;;;24.70;73.80;;;;;;2602675;54;19946;31
2022/05/13 14:35:43;;;;;;;;;;;24.60;73.40;;;;;;2603369;54;20700;31
2022/05/13 14:41:24;;;;;;;;;;;24.70;73.40;;;;;;2603581;54;19935;31
2022/05/13 14:44:02;;;;;;;;;;;24.80;74.60;;;;;;2622029;47;19935;31
2022/05/13 14:46:38;;;;;;;;;;;24.80;73.30;;;;;;2603455;54;19959;31
2022/05/13 14:49:28;;;;;;;;;;;24.80;72.00;;;;;;2602611;54;20687;31
2022/05/13 14:52:03;;;;;;;;;;;24.80;71.50;;;;;;2621922;47;19993;31
2022/05/13 14:54:39;;;;;;;;;;;24.80;71.10;;;;;;2622914;46;20496;31
2022/05/13 14:57:13;;;;;;;;;;;24.80;69.90;;;;;;2603853;54;20767;31
2022/05/13 14:59:59;;;;;;;;;;;24.60;69.40;;;;;;2604267;54;19935;31
2022/05/13 15:02:37;;;;;;;;;;;24.50;69.00;;;;;;2622291;46;20803;31
2022/05/13 15:05:12;;;;;;;;;;;24.40;68.70;;;;;;2613903;46;20844;31
2022/05/13 15:07:48;;;;;;;;;;;24.40;66.80;;;;;;2604055;54;19939;31
2022/05/13 15:10:24;;;;;;;;;;;24.30;66.00;;;;;;2604181;54;19934;31
2022/05/13 15:13:03;;;;;;;;;;;24.30;66.30;;;;;;2603458;54;19934;31
2022/05/13 15:15:43;;;;;;;;;;;24.20;66.10;;;;;;2603360;54;19954;31
2022/05/13 15:18:18;;;;;;;;;;;24.20;64.70;;;;;;2604132;54;19934;31
2022/05/13 15:20:54;;;;;;;;;;;24.10;65.40;;;;;;2604014;54;20853;31
2022/05/13 15:23:30;;;;;;;;;;;24.10;67.00;;;;;;2622839;46;19941;31
2022/05/13 15:26:04;;;;;;;;;;;24.10;69.30;;;;;;2604115;54;19989;31
2022/05/13 15:28:46;;;;;;;;;;;24.10;71.20;;;;;;2604087;54;19935;31
2022/05/13 15:31:24;;;;;;;;;;;24.00;71.90;;;;;;2622515;46;19985;31
2022/05/13 15:34:01;;;;;;;;;;;23.90;71.30;;;;;;2604047;54;19978;31
2022/05/13 15:36:40;;;;;;;;;;;23.80;71.20;;;;;;2604068;54;19989;31
2022/05/13 15:39:15;;;;;;;;;;;23.70;71.20;;;;;;2721254;39;20338;31
2022/05/13 15:41:55;;;;;;;;;;;23.70;71.90;;;;;;2604225;54;20765;31
2022/05/13 15:44:30;;;;;;;;;;;23.60;72.80;;;;;;2622507;46;19954;31
2022/05/13 15:47:06;;;;;;;;;;;23.50;72.10;;;;;;2604390;54;19994;31
2022/05/13 15:52:51;;;;;;;;;;;23.30;72.70;;;;;;2622483;46;19956;31
2022/05/13 15:55:28;;;;;;;;;;;23.20;72.20;;;;;;2622205;46;19935;31
2022/05/13 15:58:05;;;;;;;;;;;23.20;72.20;;;;;;2622312;46;19942;31
2022/05/13 16:00:41;;;;;;;;;;;23.20;72.40;;;;;;2622355;46;19935;31
2022/05/13 16:03:17;;;;;;;;;;;23.20;72.10;;;;;;2622704;46;19942;31
2022/05/13 16:05:59;;;;;;;;;;;23.10;70.90;;;;;;2622242;46;19961;31
2022/05/13 16:08:34;;;;;;;;;;;23.00;70.30;;;;;;2622784;46;19942;31
2022/05/13 16:11:09;;;;;;;;;;;22.90;70.30;;;;;;2621779;46;20807;31
2022/05/13 16:13:46;;;;;;;;;;;22.90;71.10;;;;;;2603834;54;19934;31
2022/05/13 16:16:22;;;;;;;;;;;22.90;71.90;;;;;;2604070;54;19935;31
2022/05/13 16:18:58;;;;;;;;;;;22.80;71.00;;;;;;2604097;54;20694;31